createdAt,value
2019-05-05T00:01:05.238Z,101049.14
2019-05-05T00:03:52.551Z,101061.16
2019-05-05T00:06:22.273Z,101062.04
2019-05-05T00:08:51.702Z,101060.33
2019-05-05T00:11:41.024Z,101071.06
2019-05-05T00:14:12.157Z,101065.49
2019-05-05T00:16:55.158Z,101062.04
2019-05-05T00:19:32.596Z,101066.37
2019-05-05T00:21:55.841Z,101065.49
2019-05-05T00:24:25.783Z,101067.61
2019-05-05T00:26:55.458Z,101069.77
2019-05-05T00:29:25.423Z,101073.64
2019-05-05T00:31:55.095Z,101075.34
2019-05-05T00:34:24.617Z,101077.09
2019-05-05T00:36:55.283Z,101077.94
2019-05-05T00:39:25.523Z,101083.09
2019-05-05T00:41:55.568Z,101086.08
2019-05-05T00:44:25.098Z,101086.48
2019-05-05T00:46:56.235Z,101089.04
2019-05-05T00:49:27.565Z,101093.31
2019-05-05T00:51:57.642Z,101083.83
2019-05-05T00:54:28.098Z,101089.86
2019-05-05T00:57:00.605Z,101089.88
2019-05-05T00:59:34.777Z,101085.58
2019-05-05T01:02:22.644Z,101087.70
2019-05-05T01:04:55.092Z,101087.27
2019-05-05T01:07:24.795Z,101089.33
2019-05-05T01:09:54.420Z,101093.14
2019-05-05T01:12:24.460Z,101095.25
2019-05-05T01:14:55.249Z,101095.25
2019-05-05T01:17:25.410Z,101096.52
2019-05-05T01:20:03.207Z,101093.48
2019-05-05T01:22:28.767Z,101092.06
2019-05-05T01:24:59.911Z,101099.30
2019-05-05T01:27:29.556Z,101096.24
2019-05-05T01:29:59.051Z,101096.23
2019-05-05T01:32:48.099Z,101099.20
2019-05-05T01:35:17.516Z,101098.80
2019-05-05T01:37:55.246Z,101099.62
2019-05-05T01:40:29.000Z,101098.72
2019-05-05T01:42:59.493Z,101103.89
2019-05-05T01:45:29.063Z,101106.86
2019-05-05T01:47:58.605Z,101110.31
2019-05-05T01:50:29.115Z,101108.19
2019-05-05T01:52:58.552Z,101107.32
2019-05-05T01:55:28.038Z,101107.72
2019-05-05T01:58:00.926Z,101111.62
2019-05-05T02:00:30.420Z,101109.94
2019-05-05T02:03:00.117Z,101110.02
2019-05-05T02:05:31.189Z,101107.87
2019-05-05T02:08:00.680Z,101112.61
2019-05-05T02:10:30.548Z,101110.44
2019-05-05T02:13:00.029Z,101114.30
2019-05-05T02:15:30.112Z,101114.38
2019-05-05T02:18:00.160Z,101115.25
2019-05-05T02:20:45.095Z,101121.30
2019-05-05T02:23:16.493Z,101124.30
2019-05-05T02:25:46.145Z,101125.19
2019-05-05T02:28:15.726Z,101123.42
2019-05-05T02:31:05.528Z,101123.42
2019-05-05T02:33:35.757Z,101119.95
2019-05-05T02:36:05.762Z,101126.78
2019-05-05T02:38:36.609Z,101125.08
2019-05-05T02:41:07.271Z,101133.25
2019-05-05T02:43:38.444Z,101129.88
2019-05-05T02:46:27.890Z,101138.45
2019-05-05T02:49:00.301Z,101146.57
2019-05-05T02:51:30.674Z,101142.70
2019-05-05T02:54:04.418Z,101145.31
2019-05-05T02:56:38.985Z,101149.19
2019-05-05T02:59:10.484Z,101149.21
2019-05-05T03:01:41.632Z,101151.39
2019-05-05T03:04:14.075Z,101148.82
2019-05-05T03:06:46.743Z,101153.57
2019-05-05T03:09:18.517Z,101159.13
2019-05-05T03:11:50.403Z,101153.97
2019-05-05T03:14:23.737Z,101150.95
2019-05-05T03:16:54.702Z,101153.05
2019-05-05T03:19:25.671Z,101160.78
2019-05-05T03:21:56.017Z,101156.02
2019-05-05T03:24:25.898Z,101159.00
2019-05-05T03:26:55.643Z,101166.30
2019-05-05T03:29:25.513Z,101169.27
2019-05-05T03:31:56.560Z,101174.41
2019-05-05T03:34:27.115Z,101171.83
2019-05-05T03:36:57.284Z,101169.27
2019-05-05T03:39:29.406Z,101174.02
2019-05-05T03:42:00.532Z,101176.59
2019-05-05T03:44:33.572Z,101170.55
2019-05-05T03:47:03.677Z,101179.97
2019-05-05T03:49:34.845Z,101179.11
2019-05-05T03:52:04.990Z,101179.51
2019-05-05T03:54:35.276Z,101181.66
2019-05-05T03:57:07.759Z,101186.40
2019-05-05T03:59:40.227Z,101186.40
2019-05-05T04:02:11.422Z,101191.94
2019-05-05T04:04:48.513Z,101197.07
2019-05-05T04:07:18.562Z,101197.55
2019-05-05T04:09:48.069Z,101193.34
2019-05-05T04:12:17.821Z,101199.31
2019-05-05T04:14:47.318Z,101200.19
2019-05-05T04:17:27.390Z,101208.82
2019-05-05T04:19:58.534Z,101215.71
2019-05-05T04:22:29.851Z,101220.41
2019-05-05T04:24:59.290Z,101225.09
2019-05-05T04:27:28.721Z,101221.68
2019-05-05T04:29:58.130Z,101223.02
2019-05-05T04:32:27.562Z,101228.67
2019-05-05T04:34:57.016Z,101232.16
2019-05-05T04:37:26.443Z,101236.45
2019-05-05T04:39:55.849Z,101245.98
2019-05-05T04:42:25.281Z,101247.33
2019-05-05T04:44:54.705Z,101241.35
2019-05-05T04:47:43.608Z,101242.30
2019-05-05T04:50:24.349Z,101241.06
2019-05-05T04:52:55.432Z,101248.47
2019-05-05T04:55:24.846Z,101253.17
2019-05-05T04:57:54.286Z,101249.77
2019-05-05T05:00:24.233Z,101246.39
2019-05-05T05:02:59.704Z,101247.23
2019-05-05T05:05:33.848Z,101255.84
2019-05-05T05:08:03.821Z,101257.64
2019-05-05T05:10:34.608Z,101255.97
2019-05-05T05:13:04.708Z,101256.73
2019-05-05T05:15:34.226Z,101256.73
2019-05-05T05:18:05.308Z,101262.78
2019-05-05T05:20:34.719Z,101267.15
2019-05-05T05:23:04.167Z,101270.15
2019-05-05T05:25:34.631Z,101264.64
2019-05-05T05:28:04.511Z,101270.66
2019-05-05T05:30:34.769Z,101274.58
2019-05-05T05:33:05.834Z,101279.30
2019-05-05T05:35:35.525Z,101286.23
2019-05-05T05:38:05.533Z,101293.55
2019-05-05T05:40:44.456Z,101290.99
2019-05-05T05:43:15.751Z,101296.23
2019-05-05T05:45:54.139Z,101291.09
2019-05-05T05:48:37.012Z,101297.63
2019-05-05T05:51:08.062Z,101301.97
2019-05-05T05:53:37.490Z,101299.45
2019-05-05T05:56:06.927Z,101302.05
2019-05-05T05:58:36.609Z,101305.94
2019-05-05T06:01:06.108Z,101310.73
2019-05-05T06:03:35.535Z,101318.50
2019-05-05T06:06:05.030Z,101319.81
2019-05-05T06:08:34.823Z,101320.70
2019-05-05T06:11:04.668Z,101326.39
2019-05-05T06:13:34.088Z,101329.86
2019-05-05T06:16:04.586Z,101333.74
2019-05-05T06:18:35.028Z,101335.92
2019-05-05T06:21:04.736Z,101335.55
2019-05-05T06:23:34.543Z,101342.02
2019-05-05T06:26:06.676Z,101336.02
2019-05-05T06:28:35.445Z,101334.31
2019-05-05T06:31:05.073Z,101341.65
2019-05-05T06:33:34.935Z,101338.65
2019-05-05T06:36:04.543Z,101343.86
2019-05-05T06:38:34.638Z,101350.78
2019-05-05T06:41:11.937Z,101340.46
2019-05-05T06:43:46.012Z,101345.66
2019-05-05T06:46:23.642Z,101351.31
2019-05-05T06:48:53.875Z,101353.91
2019-05-05T06:51:24.557Z,101347.84
2019-05-05T06:53:55.295Z,101349.58
2019-05-05T06:56:24.770Z,101360.41
2019-05-05T06:58:55.174Z,101357.80
2019-05-05T07:01:24.853Z,101359.92
2019-05-05T07:03:54.378Z,101362.95
2019-05-05T07:06:24.001Z,101355.19
2019-05-05T07:08:54.555Z,101364.67
2019-05-05T07:11:24.285Z,101360.31
2019-05-05T07:13:53.843Z,101370.20
2019-05-05T07:16:24.341Z,101369.71
2019-05-05T07:18:54.975Z,101387.00
2019-05-05T07:21:26.202Z,101375.30
2019-05-05T07:23:55.734Z,101379.13
2019-05-05T07:26:25.269Z,101380.81
2019-05-05T07:28:54.690Z,101380.77
2019-05-05T07:31:24.135Z,101376.84
2019-05-05T07:33:54.509Z,101379.36
2019-05-05T07:36:38.212Z,101373.70
2019-05-05T07:39:09.753Z,101370.11
2019-05-05T07:41:40.589Z,101371.37
2019-05-05T07:44:24.960Z,101369.53
2019-05-05T07:46:43.965Z,101372.84
2019-05-05T07:49:14.075Z,101371.84
2019-05-05T07:51:44.329Z,101368.66
2019-05-05T07:54:14.655Z,101370.10
2019-05-05T07:56:44.539Z,101359.60
2019-05-05T07:59:14.743Z,101364.18
2019-05-05T08:01:46.774Z,101362.27
2019-05-05T08:04:15.547Z,101368.31
2019-05-05T08:06:47.795Z,101362.08
2019-05-05T08:09:17.213Z,101362.77
2019-05-05T08:11:46.718Z,101368.80
2019-05-05T08:14:16.259Z,101370.88
2019-05-05T08:17:04.236Z,101368.38
2019-05-05T08:19:35.394Z,101367.63
2019-05-05T08:22:05.952Z,101364.98
2019-05-05T08:24:46.080Z,101369.73
2019-05-05T08:27:24.890Z,101372.02
2019-05-05T08:30:02.113Z,101367.44
2019-05-05T08:32:35.013Z,101361.34
2019-05-05T08:35:04.330Z,101372.58
2019-05-05T08:37:34.366Z,101368.06
2019-05-05T08:40:06.033Z,101363.19
2019-05-05T08:42:35.475Z,101365.86
2019-05-05T08:45:05.820Z,101369.73
2019-05-05T08:47:38.231Z,101367.91
2019-05-05T08:50:08.111Z,101365.89
2019-05-05T08:52:37.639Z,101371.78
2019-05-05T08:55:07.182Z,101373.36
2019-05-05T08:57:36.810Z,101365.66
2019-05-05T09:00:08.899Z,101367.54
2019-05-05T09:02:40.129Z,101368.52
2019-05-05T09:05:09.698Z,101370.41
2019-05-05T09:07:44.113Z,101371.48
2019-05-05T09:10:14.404Z,101372.80
2019-05-05T09:12:44.890Z,101372.94
2019-05-05T09:15:15.528Z,101375.84
2019-05-05T09:17:45.040Z,101373.97
2019-05-05T09:20:14.861Z,101376.58
2019-05-05T09:22:44.689Z,101383.58
2019-05-05T09:25:15.909Z,101378.16
2019-05-05T09:27:47.059Z,101381.48
2019-05-05T09:30:18.524Z,101380.20
2019-05-05T09:32:48.246Z,101381.74
2019-05-05T09:35:17.834Z,101386.80
2019-05-05T09:37:47.332Z,101388.97
2019-05-05T09:40:19.898Z,101383.28
2019-05-05T09:42:49.415Z,101375.67
2019-05-05T09:45:18.967Z,101375.67
2019-05-05T09:47:48.550Z,101387.67
2019-05-05T09:50:18.219Z,101388.16
2019-05-05T09:52:47.657Z,101390.95
2019-05-05T09:55:17.077Z,101383.64
2019-05-05T09:57:46.525Z,101379.73
2019-05-05T10:00:16.290Z,101380.84
2019-05-05T10:02:45.823Z,101392.48
2019-05-05T10:05:15.980Z,101386.66
2019-05-05T10:07:45.627Z,101392.47
2019-05-05T10:10:15.506Z,101391.08
2019-05-05T10:12:44.996Z,101392.98
2019-05-05T10:15:14.912Z,101394.31
2019-05-05T10:17:46.041Z,101389.03
2019-05-05T10:20:16.163Z,101396.77
2019-05-05T10:22:45.582Z,101399.45
2019-05-05T10:25:29.466Z,101399.06
2019-05-05T10:27:58.883Z,101403.45
2019-05-05T10:30:28.476Z,101401.50
2019-05-05T10:32:57.939Z,101395.05
2019-05-05T10:35:27.456Z,101396.23
2019-05-05T10:37:59.750Z,101396.23
2019-05-05T10:40:33.976Z,101392.41
2019-05-05T10:43:04.448Z,101392.41
2019-05-05T10:45:34.319Z,101390.66
2019-05-05T10:48:04.271Z,101387.62
2019-05-05T10:50:34.416Z,101381.03
2019-05-05T10:53:04.716Z,101389.67
2019-05-05T10:55:34.880Z,101389.30
2019-05-05T10:58:04.572Z,101390.27
2019-05-05T11:00:39.970Z,101388.45
2019-05-05T11:03:09.631Z,101390.27
2019-05-05T11:05:41.537Z,101386.92
2019-05-05T11:08:13.619Z,101390.46
2019-05-05T11:10:44.888Z,101385.79
2019-05-05T11:13:15.085Z,101387.77
2019-05-05T11:15:44.703Z,101390.48
2019-05-05T11:18:15.296Z,101391.33
2019-05-05T11:20:45.462Z,101393.95
2019-05-05T11:23:15.383Z,101391.61
2019-05-05T11:25:45.224Z,101384.16
2019-05-05T11:28:16.420Z,101385.16
2019-05-05T11:30:48.998Z,101382.28
2019-05-05T11:33:38.090Z,101382.37
2019-05-05T11:36:20.691Z,101389.72
2019-05-05T11:38:50.145Z,101377.97
2019-05-05T11:41:19.582Z,101382.65
2019-05-05T11:43:49.097Z,101383.20
2019-05-05T11:46:18.677Z,101375.53
2019-05-05T11:48:50.932Z,101377.24
2019-05-05T11:51:20.923Z,101375.09
2019-05-05T11:53:50.427Z,101373.63
2019-05-05T11:56:22.691Z,101375.42
2019-05-05T11:58:54.659Z,101378.90
2019-05-05T12:01:24.317Z,101374.58
2019-05-05T12:03:53.906Z,101378.91
2019-05-05T12:06:24.667Z,101376.18
2019-05-05T12:08:54.259Z,101379.16
2019-05-05T12:11:28.950Z,101378.09
2019-05-05T12:13:58.717Z,101379.79
2019-05-05T12:16:32.122Z,101376.55
2019-05-05T12:19:03.386Z,101372.41
2019-05-05T12:21:33.753Z,101374.89
2019-05-05T12:24:05.033Z,101373.48
2019-05-05T12:26:39.119Z,101384.30
2019-05-05T12:29:17.315Z,101385.51
2019-05-05T12:31:48.167Z,101374.50
2019-05-05T12:34:20.313Z,101378.04
2019-05-05T12:36:54.011Z,101378.33
2019-05-05T12:39:23.798Z,101375.13
2019-05-05T12:41:54.267Z,101376.83
2019-05-05T12:44:26.629Z,101378.43
2019-05-05T12:47:14.490Z,101373.03
2019-05-05T12:49:44.095Z,101374.34
2019-05-05T12:52:14.759Z,101370.94
2019-05-05T12:54:46.697Z,101378.22
2019-05-05T12:57:16.135Z,101362.80
2019-05-05T12:59:45.696Z,101365.31
2019-05-05T13:02:15.274Z,101369.41
2019-05-05T13:04:44.714Z,101367.89
2019-05-05T13:07:14.271Z,101361.80
2019-05-05T13:09:44.167Z,101362.86
2019-05-05T13:12:15.146Z,101360.02
2019-05-05T13:14:44.809Z,101371.58
2019-05-05T13:17:15.311Z,101368.23
2019-05-05T13:19:46.527Z,101364.94
2019-05-05T13:22:20.290Z,101361.50
2019-05-05T13:25:07.625Z,101360.34
2019-05-05T13:27:39.159Z,101368.05
2019-05-05T13:30:10.387Z,101365.58
2019-05-05T13:32:39.796Z,101362.56
2019-05-05T13:35:14.354Z,101355.45
2019-05-05T13:37:44.419Z,101360.05
2019-05-05T13:40:14.668Z,101354.32
2019-05-05T13:42:44.293Z,101351.95
2019-05-05T13:45:19.186Z,101355.29
2019-05-05T13:47:48.785Z,101357.18
2019-05-05T13:50:25.963Z,101367.16
2019-05-05T13:52:55.528Z,101368.51
2019-05-05T13:55:27.703Z,101372.56
2019-05-05T13:57:57.193Z,101371.23
2019-05-05T14:00:27.149Z,101368.23
2019-05-05T14:02:56.908Z,101367.61
2019-05-05T14:05:26.490Z,101357.67
2019-05-05T14:07:56.345Z,101357.67
2019-05-05T14:10:25.853Z,101360.80
2019-05-05T14:12:55.638Z,101360.91
2019-05-05T14:15:25.218Z,101362.31
2019-05-05T14:17:54.698Z,101364.05
2019-05-05T14:20:27.420Z,101365.02
2019-05-05T14:22:57.052Z,101370.43
2019-05-05T14:25:28.272Z,101362.30
2019-05-05T14:28:06.045Z,101354.70
2019-05-05T14:30:43.234Z,101360.41
2019-05-05T14:33:14.424Z,101358.09
2019-05-05T14:35:45.575Z,101368.01
2019-05-05T14:38:19.390Z,101364.28
2019-05-05T14:40:48.901Z,101368.55
2019-05-05T14:43:18.361Z,101376.13
2019-05-05T14:45:47.948Z,101381.96
2019-05-05T14:48:17.438Z,101379.51
2019-05-05T14:50:48.402Z,101384.94
2019-05-05T14:53:25.064Z,101383.72
2019-05-05T14:55:54.583Z,101376.94
2019-05-05T14:58:24.150Z,101378.63
2019-05-05T15:00:53.676Z,101385.08
2019-05-05T15:03:24.256Z,101386.71
2019-05-05T15:05:58.010Z,101381.25
2019-05-05T15:08:33.475Z,101378.03
2019-05-05T15:11:07.762Z,101383.77
2019-05-05T15:13:37.318Z,101384.68
2019-05-05T15:16:09.913Z,101378.45
2019-05-05T15:18:38.230Z,101386.81
2019-05-05T15:21:08.739Z,101379.05
2019-05-05T15:23:40.176Z,101381.96
2019-05-05T15:26:09.634Z,101375.41
2019-05-05T15:28:39.427Z,101383.75
2019-05-05T15:31:11.829Z,101379.34
2019-05-05T15:33:44.429Z,101371.11
2019-05-05T15:36:15.507Z,101369.05
2019-05-05T15:38:44.955Z,101370.09
2019-05-05T15:41:17.948Z,101365.70
2019-05-05T15:43:47.395Z,101366.30
2019-05-05T15:46:16.845Z,101368.75
2019-05-05T15:48:47.903Z,101360.99
2019-05-05T15:51:18.420Z,101362.30
2019-05-05T15:53:47.918Z,101364.73
2019-05-05T15:56:17.348Z,101361.41
2019-05-05T15:58:46.772Z,101366.50
2019-05-05T16:01:16.223Z,101370.29
2019-05-05T16:03:46.043Z,101373.27
2019-05-05T16:06:18.017Z,101378.34
2019-05-05T16:08:50.328Z,101376.48
2019-05-05T16:11:26.942Z,101374.84
2019-05-05T16:13:56.477Z,101379.73
2019-05-05T16:16:34.161Z,101382.91
2019-05-05T16:19:27.956Z,101372.97
2019-05-05T16:21:58.225Z,101371.39
2019-05-05T16:24:36.552Z,101368.98
2019-05-05T16:27:18.381Z,101368.50
2019-05-05T16:29:36.217Z,101367.08
2019-05-05T16:32:18.582Z,101368.69
2019-05-05T16:34:40.326Z,101371.00
2019-05-05T16:37:10.138Z,101369.70
2019-05-05T16:39:39.644Z,101367.88
2019-05-05T16:42:09.130Z,101368.91
2019-05-05T16:44:38.833Z,101370.73
2019-05-05T16:47:10.466Z,101365.28
2019-05-05T16:49:41.005Z,101369.22
2019-05-05T16:52:12.083Z,101363.33
2019-05-05T16:54:43.736Z,101356.27
2019-05-05T16:57:14.424Z,101362.93
2019-05-05T16:59:44.243Z,101364.63
2019-05-05T17:02:13.973Z,101372.53
2019-05-05T17:04:43.624Z,101370.39
2019-05-05T17:07:14.232Z,101371.73
2019-05-05T17:09:44.591Z,101363.89
2019-05-05T17:12:14.252Z,101376.77
2019-05-05T17:14:46.051Z,101381.80
2019-05-05T17:17:18.843Z,101381.80
2019-05-05T17:19:49.918Z,101381.31
2019-05-05T17:22:23.958Z,101389.13
2019-05-05T17:24:53.623Z,101389.13
2019-05-05T17:27:23.660Z,101382.41
2019-05-05T17:29:53.700Z,101386.84
2019-05-05T17:32:24.872Z,101389.82
2019-05-05T17:34:55.477Z,101389.38
2019-05-05T17:37:24.968Z,101390.10
2019-05-05T17:39:56.139Z,101389.59
2019-05-05T17:42:39.388Z,101390.13
2019-05-05T17:45:15.494Z,101385.78
2019-05-05T17:47:46.566Z,101382.07
2019-05-05T17:50:18.858Z,101386.02
2019-05-05T17:52:55.680Z,101383.61
2019-05-05T17:55:33.790Z,101388.53
2019-05-05T17:58:05.411Z,101391.23
2019-05-05T18:00:36.422Z,101391.80
2019-05-05T18:03:06.009Z,101390.25
2019-05-05T18:05:54.322Z,101391.19
2019-05-05T18:08:39.947Z,101395.99
2019-05-05T18:11:11.086Z,101399.21
2019-05-05T18:13:43.478Z,101400.14
2019-05-05T18:16:15.723Z,101399.73
2019-05-05T18:18:45.237Z,101402.03
2019-05-05T18:21:15.507Z,101405.62
2019-05-05T18:23:46.589Z,101400.91
2019-05-05T18:26:20.749Z,101407.58
2019-05-05T18:28:51.336Z,101409.45
2019-05-05T18:31:24.312Z,101410.75
2019-05-05T18:33:54.449Z,101410.31
2019-05-05T18:36:24.154Z,101416.12
2019-05-05T18:38:55.208Z,101414.48
2019-05-05T18:41:26.266Z,101420.17
2019-05-05T18:43:58.414Z,101426.41
2019-05-05T18:46:33.872Z,101432.42
2019-05-05T18:49:04.374Z,101434.28
2019-05-05T18:51:34.764Z,101430.03
2019-05-05T18:54:04.652Z,101434.92
2019-05-05T18:56:34.791Z,101432.75
2019-05-05T18:59:06.648Z,101434.62
2019-05-05T19:01:55.237Z,101440.30
2019-05-05T19:04:32.260Z,101445.20
2019-05-05T19:07:18.503Z,101437.46
2019-05-05T19:09:53.791Z,101447.94
2019-05-05T19:12:19.291Z,101447.13
2019-05-05T19:14:48.732Z,101444.56
2019-05-05T19:17:18.257Z,101450.71
2019-05-05T19:19:49.995Z,101454.17
2019-05-05T19:22:19.506Z,101459.47
2019-05-05T19:24:49.067Z,101457.34
2019-05-05T19:27:20.142Z,101461.27
2019-05-05T19:29:49.697Z,101460.91
2019-05-05T19:32:19.109Z,101459.61
2019-05-05T19:34:48.575Z,101463.10
2019-05-05T19:37:18.055Z,101470.94
2019-05-05T19:39:49.548Z,101464.51
2019-05-05T19:42:19.028Z,101474.02
2019-05-05T19:44:50.001Z,101477.95
2019-05-05T19:47:20.807Z,101468.46
2019-05-05T19:49:52.435Z,101472.34
2019-05-05T19:52:23.920Z,101478.03
2019-05-05T19:54:54.729Z,101478.08
2019-05-05T19:57:24.371Z,101484.22
2019-05-05T19:59:55.411Z,101479.91
2019-05-05T20:02:24.830Z,101479.49
2019-05-05T20:04:55.371Z,101484.27
2019-05-05T20:07:24.965Z,101481.75
2019-05-05T20:09:54.504Z,101484.33
2019-05-05T20:12:23.872Z,101484.35
2019-05-05T20:14:55.878Z,101481.78
2019-05-05T20:17:29.799Z,101486.12
2019-05-05T20:19:59.364Z,101487.02
2019-05-05T20:22:28.871Z,101488.34
2019-05-05T20:24:58.298Z,101487.09
2019-05-05T20:27:27.720Z,101484.48
2019-05-05T20:29:57.281Z,101487.98
2019-05-05T20:32:38.206Z,101493.20
2019-05-05T20:35:17.733Z,101491.46
2019-05-05T20:37:57.582Z,101493.63
2019-05-05T20:40:28.655Z,101492.38
2019-05-05T20:43:01.115Z,101497.59
2019-05-05T20:45:34.571Z,101493.29
2019-05-05T20:48:05.182Z,101503.70
2019-05-05T20:50:34.591Z,101500.69
2019-05-05T20:53:04.876Z,101501.11
2019-05-05T20:55:34.628Z,101504.59
2019-05-05T20:58:04.794Z,101498.13
2019-05-05T21:00:34.862Z,101498.13
2019-05-05T21:03:04.972Z,101498.96
2019-05-05T21:05:34.799Z,101498.55
2019-05-05T21:08:04.918Z,101508.95
2019-05-05T21:10:34.922Z,101508.92
2019-05-05T21:13:04.559Z,101499.02
2019-05-05T21:15:34.338Z,101502.88
2019-05-05T21:18:05.629Z,101502.48
2019-05-05T21:20:35.041Z,101502.47
2019-05-05T21:23:06.425Z,101500.32
2019-05-05T21:25:37.473Z,101507.69
2019-05-05T21:28:06.909Z,101508.11
2019-05-05T21:30:36.512Z,101507.69
2019-05-05T21:33:06.023Z,101506.81
2019-05-05T21:35:35.539Z,101507.25
2019-05-05T21:38:05.112Z,101507.70
2019-05-05T21:40:34.833Z,101510.30
2019-05-05T21:43:05.142Z,101515.47
2019-05-05T21:45:35.057Z,101518.53
2019-05-05T21:48:04.635Z,101517.23
2019-05-05T21:50:39.376Z,101515.91
2019-05-05T21:53:19.362Z,101524.56
2019-05-05T21:55:56.533Z,101520.23
2019-05-05T21:58:36.772Z,101529.76
2019-05-05T22:01:14.903Z,101526.28
2019-05-05T22:03:44.954Z,101529.32
2019-05-05T22:06:14.736Z,101521.97
2019-05-05T22:08:44.283Z,101524.12
2019-05-05T22:11:14.611Z,101518.07
2019-05-05T22:13:44.450Z,101523.27
2019-05-05T22:16:14.129Z,101516.77
2019-05-05T22:18:46.349Z,101513.30
2019-05-05T22:21:22.337Z,101514.19
2019-05-05T22:24:09.562Z,101510.72
2019-05-05T22:26:38.980Z,101510.72
2019-05-05T22:29:08.422Z,101514.18
2019-05-05T22:31:37.828Z,101508.55
2019-05-05T22:34:09.034Z,101503.82
2019-05-05T22:36:38.532Z,101512.47
2019-05-05T22:39:10.624Z,101515.05
2019-05-05T22:41:40.371Z,101512.03
2019-05-05T22:44:09.921Z,101514.20
2019-05-05T22:46:40.647Z,101508.14
2019-05-05T22:49:10.085Z,101508.56
2019-05-05T22:51:39.576Z,101513.74
2019-05-05T22:54:09.451Z,101514.19
2019-05-05T22:56:38.936Z,101514.17
2019-05-05T22:59:08.596Z,101516.77
2019-05-05T23:01:38.111Z,101512.48
2019-05-05T23:04:18.324Z,101515.91
2019-05-05T23:06:55.236Z,101515.91
2019-05-05T23:09:24.648Z,101512.03
2019-05-05T23:11:54.627Z,101508.13
2019-05-05T23:14:30.414Z,101512.44
2019-05-05T23:17:09.208Z,101511.15
2019-05-05T23:19:55.443Z,101512.42
2019-05-05T23:22:29.188Z,101514.11
2019-05-05T23:25:04.133Z,101508.09
2019-05-05T23:27:47.235Z,101504.59
2019-05-05T23:30:18.570Z,101508.48
2019-05-05T23:32:48.661Z,101503.33
2019-05-05T23:35:18.633Z,101499.86
2019-05-05T23:37:51.198Z,101502.03
2019-05-05T23:40:24.632Z,101506.34
2019-05-05T23:42:54.471Z,101499.44
2019-05-05T23:45:24.708Z,101501.16
2019-05-05T23:47:55.695Z,101499.41
2019-05-05T23:50:25.131Z,101495.11
2019-05-05T23:52:54.890Z,101492.52
2019-05-05T23:55:24.428Z,101498.12
2019-05-05T23:57:54.993Z,101493.81
